Time;durP1;ratioP1;P1;durP2;ratioP2;P2;SDS_P1;SDS_P2;PMS_P1;PMS_P2;Temp;Humidity;BMP_temperature;BMP_pressure;BME280_temperature;BME280_humidity;BME280_pressure;Samples;Min_cycle;Max_cycle;Signal;HPM_P1;HPM_P2
2023/05/16 00:01:36;;;;;;;5.67;4.83;;;;;;;;;;5054104;28;20693;-74
2023/05/16 00:04:41;;;;;;;7.53;5.60;;;;;;;;;;5042112;28;20200;-74
2023/05/16 00:07:46;;;;;;;5.87;4.90;;;;;;;;;;5054674;28;20204;-73
2023/05/16 00:10:50;;;;;;;5.50;5.00;;;;;;;;;;5041943;28;20176;-73
2023/05/16 00:13:55;;;;;;;5.47;4.97;;;;;;;;;;5054052;28;20176;-73
2023/05/16 00:16:59;;;;;;;6.43;5.27;;;;;;;;;;5053429;28;20192;-73
2023/05/16 00:20:06;;;;;;;5.67;5.10;;;;;;;;;;5030299;28;20200;-73
2023/05/16 00:23:11;;;;;;;7.10;5.47;;;;;;;;;;5054005;28;20212;-74
2023/05/16 00:26:15;;;;;;;5.83;4.80;;;;;;;;;;5041523;28;20191;-73
2023/05/16 00:29:23;;;;;;;7.60;5.37;;;;;;;;;;5030508;28;20508;-73
2023/05/16 00:32:27;;;;;;;8.17;5.33;;;;;;;;;;5042152;28;20674;-73
2023/05/16 00:35:31;;;;;;;6.60;5.20;;;;;;;;;;5053823;28;20179;-74
2023/05/16 00:38:35;;;;;;;6.10;5.40;;;;;;;;;;5041698;28;20176;-73
2023/05/16 00:41:40;;;;;;;5.33;4.83;;;;;;;;;;5041293;28;20215;-73
2023/05/16 00:44:44;;;;;;;5.87;4.93;;;;;;;;;;5041822;28;20184;-73
2023/05/16 00:47:49;;;;;;;7.03;5.37;;;;;;;;;;5041397;28;20659;-73
2023/05/16 00:50:54;;;;;;;6.23;5.17;;;;;;;;;;5029937;28;20184;-74
2023/05/16 00:53:59;;;;;;;7.87;5.20;;;;;;;;;;5053837;28;20180;-73
2023/05/16 00:57:05;;;;;;;7.70;5.20;;;;;;;;;;5041076;28;20172;-73
2023/05/16 01:00:10;;;;;;;6.30;5.23;;;;;;;;;;5053210;28;20192;-74
2023/05/16 01:03:14;;;;;;;8.00;5.17;;;;;;;;;;5053697;28;20228;-73
2023/05/16 01:06:18;;;;;;;5.83;5.23;;;;;;;;;;5041320;28;20179;-74
2023/05/16 01:09:22;;;;;;;6.47;5.77;;;;;;;;;;5041410;28;20176;-74
2023/05/16 01:12:32;;;;;;;6.63;6.03;;;;;;;;;;5029730;28;20227;-73
2023/05/16 01:16:29;;;;;;;6.83;6.10;;;;;;;;;;5041118;28;20188;-73
2023/05/16 01:19:54;;;;;;;9.13;5.70;;;;;;;;;;5035936;28;20204;-74
2023/05/16 01:23:03;;;;;;;6.73;5.73;;;;;;;;;;5040672;28;20583;-73
2023/05/16 01:26:26;;;;;;;8.50;6.70;;;;;;;;;;5040809;28;20189;-73
2023/05/16 01:29:31;;;;;;;9.73;6.70;;;;;;;;;;5042709;28;20176;-74
2023/05/16 01:32:35;;;;;;;7.50;6.50;;;;;;;;;;5033978;28;20560;-73
2023/05/16 01:35:51;;;;;;;6.90;5.77;;;;;;;;;;5033491;28;20179;-74
2023/05/16 01:39:13;;;;;;;8.97;6.13;;;;;;;;;;5057242;28;20611;-74
2023/05/16 01:42:20;;;;;;;10.43;6.47;;;;;;;;;;5044476;28;20220;-73
2023/05/16 01:45:30;;;;;;;8.80;6.43;;;;;;;;;;5057142;28;20538;-74
2023/05/16 01:48:43;;;;;;;8.67;6.07;;;;;;;;;;5057025;28;20212;-74
2023/05/16 01:51:58;;;;;;;8.37;6.80;;;;;;;;;;5044657;28;20215;-73
2023/05/16 01:55:05;;;;;;;8.27;7.00;;;;;;;;;;5044697;28;20180;-73
2023/05/16 01:58:11;;;;;;;9.10;7.03;;;;;;;;;;5033195;28;20172;-73
2023/05/16 02:01:15;;;;;;;7.67;6.97;;;;;;;;;;5033148;28;20173;-73
2023/05/16 02:04:19;;;;;;;7.40;6.50;;;;;;;;;;5044727;28;20180;-73
2023/05/16 02:07:23;;;;;;;11.37;7.13;;;;;;;;;;5056953;28;20204;-73
2023/05/16 02:10:27;;;;;;;8.37;7.07;;;;;;;;;;5044576;28;20189;-73
2023/05/16 02:13:31;;;;;;;8.17;7.00;;;;;;;;;;5056267;28;20220;-73
2023/05/16 02:16:40;;;;;;;7.67;6.70;;;;;;;;;;5044166;28;20176;-74
2023/05/16 02:19:44;;;;;;;9.20;6.70;;;;;;;;;;5043998;28;20627;-74
2023/05/16 02:22:49;;;;;;;11.30;7.27;;;;;;;;;;5044344;28;20208;-74
2023/05/16 02:25:53;;;;;;;7.60;6.80;;;;;;;;;;5043836;28;20179;-73
2023/05/16 02:29:01;;;;;;;9.50;6.50;;;;;;;;;;5043881;28;20208;-73
2023/05/16 02:32:05;;;;;;;8.33;6.57;;;;;;;;;;5056138;28;20220;-72
2023/05/16 02:35:10;;;;;;;8.47;6.70;;;;;;;;;;5043655;28;20227;-73
2023/05/16 02:38:16;;;;;;;8.23;6.70;;;;;;;;;;5044169;28;20176;-73
2023/05/16 02:41:21;;;;;;;8.23;7.10;;;;;;;;;;5043354;28;20185;-73
2023/05/16 02:44:26;;;;;;;9.67;7.67;;;;;;;;;;5055800;28;20176;-73
2023/05/16 02:47:30;;;;;;;8.13;7.33;;;;;;;;;;5055839;28;20566;-73
2023/05/16 02:50:34;;;;;;;10.40;7.13;;;;;;;;;;5043542;28;20195;-73
2023/05/16 02:53:39;;;;;;;7.93;7.13;;;;;;;;;;5032074;28;20189;-73
2023/05/16 02:56:43;;;;;;;8.30;7.17;;;;;;;;;;5055546;28;20176;-73
2023/05/16 02:59:47;;;;;;;10.10;8.00;;;;;;;;;;5031971;28;20647;-73
2023/05/16 03:02:51;;;;;;;10.13;7.50;;;;;;;;;;5055342;28;20227;-72
2023/05/16 03:05:55;;;;;;;9.17;7.90;;;;;;;;;;5031703;28;20193;-73
2023/05/16 03:08:59;;;;;;;9.50;8.30;;;;;;;;;;5042933;28;20219;-73
2023/05/16 03:12:04;;;;;;;8.63;7.73;;;;;;;;;;5020198;28;20560;-73
2023/05/16 03:15:08;;;;;;;12.07;7.90;;;;;;;;;;5043164;28;20198;-73
2023/05/16 03:18:14;;;;;;;8.50;7.67;;;;;;;;;;5042902;28;20176;-73
2023/05/16 03:21:20;;;;;;;9.97;8.03;;;;;;;;;;5031936;28;20180;-73
2023/05/16 03:24:24;;;;;;;10.70;8.00;;;;;;;;;;5042997;28;20180;-73
2023/05/16 03:27:28;;;;;;;8.60;7.60;;;;;;;;;;5042790;28;20233;-73
2023/05/16 03:30:33;;;;;;;9.20;8.07;;;;;;;;;;5055474;28;20181;-74
2023/05/16 03:33:38;;;;;;;10.40;8.27;;;;;;;;;;5066533;28;20683;-73
2023/05/16 03:36:42;;;;;;;11.80;8.50;;;;;;;;;;5042807;28;20661;-73
2023/05/16 03:39:46;;;;;;;11.50;8.17;;;;;;;;;;5031627;28;20189;-73
2023/05/16 03:42:50;;;;;;;11.63;8.63;;;;;;;;;;5031080;28;20224;-73
2023/05/16 03:45:54;;;;;;;11.47;8.20;;;;;;;;;;5042640;28;20183;-73
2023/05/16 03:48:59;;;;;;;9.37;8.37;;;;;;;;;;5054774;28;20218;-73
2023/05/16 03:52:04;;;;;;;10.90;9.77;;;;;;;;;;5053488;28;20216;-73
2023/05/16 03:55:08;;;;;;;11.60;9.17;;;;;;;;;;5054919;28;20209;-73
2023/05/16 03:58:12;;;;;;;9.73;8.73;;;;;;;;;;5042646;28;20531;-73
2023/05/16 04:01:34;;;;;;;10.80;8.57;;;;;;;;;;5054208;28;20208;-73
2023/05/16 04:04:38;;;;;;;10.93;9.57;;;;;;;;;;4992447;28;20222;-71
2023/05/16 04:07:42;;;;;;;10.57;9.23;;;;;;;;;;4994833;28;20209;-70
2023/05/16 04:10:46;;;;;;;10.20;8.67;;;;;;;;;;4983111;28;20185;-70
2023/05/16 04:13:52;;;;;;;12.27;8.47;;;;;;;;;;4975573;28;20200;-71
2023/05/16 04:16:56;;;;;;;10.77;9.23;;;;;;;;;;4963595;28;20211;-71
2023/05/16 04:20:01;;;;;;;10.57;9.47;;;;;;;;;;4974578;28;20175;-70
2023/05/16 04:23:05;;;;;;;12.57;9.30;;;;;;;;;;4975671;28;20214;-70
2023/05/16 04:26:10;;;;;;;11.93;9.70;;;;;;;;;;4975276;28;20190;-71
2023/05/16 04:29:14;;;;;;;11.50;9.67;;;;;;;;;;4975616;28;20228;-71
2023/05/16 04:32:18;;;;;;;12.40;9.20;;;;;;;;;;4974696;28;20229;-70
2023/05/16 04:35:23;;;;;;;11.47;9.80;;;;;;;;;;4975220;28;20670;-70
2023/05/16 04:38:27;;;;;;;9.60;8.60;;;;;;;;;;4963375;28;20182;-70
2023/05/16 04:41:32;;;;;;;14.13;9.57;;;;;;;;;;4974210;28;20187;-70
2023/05/16 04:44:36;;;;;;;12.37;9.83;;;;;;;;;;4975145;28;20190;-71
2023/05/16 04:47:41;;;;;;;13.73;9.90;;;;;;;;;;4974704;28;20597;-70
2023/05/16 04:50:45;;;;;;;13.53;9.23;;;;;;;;;;4963318;28;20190;-70
2023/05/16 04:53:49;;;;;;;10.23;9.13;;;;;;;;;;4963020;28;20201;-70
2023/05/16 04:56:53;;;;;;;11.47;9.67;;;;;;;;;;4974624;28;20213;-70
2023/05/16 04:59:57;;;;;;;11.40;9.30;;;;;;;;;;4974083;28;20182;-70
2023/05/16 05:03:01;;;;;;;10.50;8.83;;;;;;;;;;4973545;28;20723;-71
2023/05/16 05:06:06;;;;;;;10.67;9.57;;;;;;;;;;4974366;28;20183;-70
2023/05/16 05:09:09;;;;;;;10.70;9.60;;;;;;;;;;4962981;28;20213;-70
2023/05/16 05:12:13;;;;;;;9.80;8.73;;;;;;;;;;4974342;28;20247;-70
2023/05/16 05:15:18;;;;;;;11.07;9.00;;;;;;;;;;4973890;28;20178;-71
2023/05/16 05:18:22;;;;;;;13.23;9.10;;;;;;;;;;4974360;28;20182;-70
2023/05/16 05:21:26;;;;;;;13.47;9.13;;;;;;;;;;4974186;28;20179;-70
2023/05/16 05:24:30;;;;;;;12.60;9.60;;;;;;;;;;4974578;28;20206;-71
2023/05/16 05:27:34;;;;;;;10.73;9.10;;;;;;;;;;4974168;28;20193;-70
2023/05/16 05:30:38;;;;;;;9.67;8.67;;;;;;;;;;4974748;28;20191;-70
2023/05/16 05:33:42;;;;;;;10.30;9.20;;;;;;;;;;4974496;28;20178;-70
2023/05/16 05:36:47;;;;;;;12.40;10.30;;;;;;;;;;4973417;28;20649;-71
2023/05/16 05:39:50;;;;;;;11.43;9.50;;;;;;;;;;4974755;28;20190;-71
2023/05/16 05:42:55;;;;;;;12.30;9.87;;;;;;;;;;4973269;28;20233;-71
2023/05/16 05:45:59;;;;;;;8.77;7.87;;;;;;;;;;4962430;28;20205;-70
2023/05/16 05:49:03;;;;;;;12.43;9.83;;;;;;;;;;4973295;28;20567;-70
2023/05/16 05:52:08;;;;;;;9.90;8.80;;;;;;;;;;4974520;28;20214;-70
2023/05/16 05:55:12;;;;;;;11.33;9.13;;;;;;;;;;4974737;28;20179;-70
2023/05/16 05:58:17;;;;;;;10.90;9.03;;;;;;;;;;4974530;28;20183;-70
2023/05/16 06:01:21;;;;;;;10.90;9.00;;;;;;;;;;4973387;28;20202;-70
2023/05/16 06:04:24;;;;;;;11.77;9.13;;;;;;;;;;4973608;28;20209;-70
2023/05/16 06:07:28;;;;;;;11.97;9.70;;;;;;;;;;4962239;28;20274;-71
2023/05/16 06:10:33;;;;;;;10.37;9.27;;;;;;;;;;4973876;28;20203;-70
2023/05/16 06:13:37;;;;;;;10.23;8.70;;;;;;;;;;4973802;28;20224;-70
2023/05/16 06:16:41;;;;;;;9.83;8.33;;;;;;;;;;4977328;28;20190;-70
2023/05/16 06:19:45;;;;;;;9.40;8.47;;;;;;;;;;4977592;28;20183;-70
2023/05/16 06:22:49;;;;;;;11.03;8.90;;;;;;;;;;4977530;28;20693;-70
2023/05/16 06:25:53;;;;;;;10.70;9.70;;;;;;;;;;4977577;28;20294;-71
2023/05/16 06:28:57;;;;;;;11.17;9.10;;;;;;;;;;4977224;28;20211;-70
2023/05/16 06:32:01;;;;;;;11.63;10.03;;;;;;;;;;4976377;28;20214;-70
2023/05/16 06:35:07;;;;;;;11.40;8.80;;;;;;;;;;4977232;28;20190;-70
2023/05/16 06:38:12;;;;;;;10.57;8.87;;;;;;;;;;4965801;28;20646;-70
2023/05/16 06:41:16;;;;;;;10.87;8.97;;;;;;;;;;4965475;28;20182;-71
2023/05/16 06:44:22;;;;;;;12.77;9.20;;;;;;;;;;4977058;28;20186;-70
2023/05/16 06:47:26;;;;;;;13.60;9.73;;;;;;;;;;4977197;28;20175;-71
2023/05/16 06:50:30;;;;;;;13.40;8.60;;;;;;;;;;4977189;28;20278;-71
2023/05/16 06:53:35;;;;;;;12.93;9.53;;;;;;;;;;4976752;28;20600;-71
2023/05/16 06:56:39;;;;;;;10.27;8.07;;;;;;;;;;4975887;28;20207;-70
2023/05/16 06:59:43;;;;;;;10.23;8.80;;;;;;;;;;4976721;28;20203;-71
2023/05/16 07:02:47;;;;;;;9.73;8.10;;;;;;;;;;4976767;28;20598;-71
2023/05/16 07:05:51;;;;;;;9.50;8.57;;;;;;;;;;4965251;28;20191;-71
2023/05/16 07:08:56;;;;;;;11.30;9.27;;;;;;;;;;4976257;28;20219;-70
2023/05/16 07:12:00;;;;;;;9.83;8.27;;;;;;;;;;4976634;28;20589;-70
2023/05/16 07:15:05;;;;;;;9.63;8.37;;;;;;;;;;4964878;28;20183;-71
2023/05/16 07:18:09;;;;;;;9.80;8.70;;;;;;;;;;4976692;28;20183;-71
2023/05/16 07:21:13;;;;;;;12.33;8.40;;;;;;;;;;4964589;28;20198;-71
2023/05/16 07:24:18;;;;;;;8.93;8.00;;;;;;;;;;4976719;28;20209;-71
2023/05/16 07:27:22;;;;;;;16.93;8.47;;;;;;;;;;4976733;28;20199;-71
2023/05/16 07:30:26;;;;;;;13.20;9.00;;;;;;;;;;4976438;28;20221;-71
2023/05/16 07:33:30;;;;;;;11.67;9.30;;;;;;;;;;4975572;28;20225;-71
2023/05/16 07:36:34;;;;;;;11.40;9.80;;;;;;;;;;4976605;28;20686;-71
2023/05/16 07:39:39;;;;;;;15.00;8.93;;;;;;;;;;4976531;28;20182;-70
2023/05/16 07:42:43;;;;;;;12.97;11.47;;;;;;;;;;4976482;28;20223;-71
2023/05/16 07:45:47;;;;;;;15.37;11.90;;;;;;;;;;4976172;28;20178;-71
2023/05/16 07:48:51;;;;;;;11.57;10.17;;;;;;;;;;4975987;28;20241;-71
2023/05/16 07:51:55;;;;;;;11.37;9.60;;;;;;;;;;4976250;28;20229;-70
2023/05/16 07:54:59;;;;;;;13.00;9.77;;;;;;;;;;4975746;28;20194;-70
2023/05/16 07:58:04;;;;;;;11.40;9.03;;;;;;;;;;4975954;28;20199;-70
2023/05/16 08:01:08;;;;;;;14.57;8.80;;;;;;;;;;4963996;28;20186;-71
2023/05/16 08:04:13;;;;;;;10.30;9.20;;;;;;;;;;4975819;28;20182;-71
2023/05/16 08:07:21;;;;;;;11.23;8.90;;;;;;;;;;4974679;28;20187;-70
2023/05/16 08:10:25;;;;;;;10.57;8.27;;;;;;;;;;4975574;28;20217;-71
2023/05/16 08:13:30;;;;;;;10.07;7.50;;;;;;;;;;4975345;28;20581;-70
2023/05/16 08:16:34;;;;;;;8.33;7.53;;;;;;;;;;4975321;28;20188;-71
2023/05/16 08:19:39;;;;;;;10.33;7.77;;;;;;;;;;4975276;28;20630;-71
2023/05/16 08:22:43;;;;;;;9.83;7.77;;;;;;;;;;4963504;28;20218;-71
2023/05/16 08:25:47;;;;;;;9.40;7.13;;;;;;;;;;4975624;28;20183;-71
2023/05/16 08:28:51;;;;;;;11.00;7.97;;;;;;;;;;4975594;28;20551;-70
2023/05/16 08:31:55;;;;;;;8.43;7.60;;;;;;;;;;4975395;28;20229;-70
2023/05/16 08:34:59;;;;;;;11.53;9.27;;;;;;;;;;4975775;28;20190;-71
2023/05/16 08:38:03;;;;;;;12.63;7.97;;;;;;;;;;4974837;28;20190;-71
2023/05/16 08:41:08;;;;;;;9.70;7.57;;;;;;;;;;4974503;28;20569;-70
2023/05/16 08:44:19;;;;;;;8.33;7.53;;;;;;;;;;4975177;28;20183;-70
2023/05/16 08:47:25;;;;;;;8.17;7.37;;;;;;;;;;4974300;28;20182;-71
2023/05/16 08:50:30;;;;;;;11.10;8.10;;;;;;;;;;4962823;28;20207;-71
2023/05/16 08:53:40;;;;;;;9.33;8.00;;;;;;;;;;4962977;28;20226;-71
2023/05/16 08:56:47;;;;;;;11.20;9.67;;;;;;;;;;4974235;28;20547;-71
2023/05/16 08:59:53;;;;;;;9.67;8.60;;;;;;;;;;4974880;28;20531;-71
2023/05/16 09:02:57;;;;;;;10.77;8.73;;;;;;;;;;4974635;28;20226;-71
2023/05/16 09:06:04;;;;;;;8.97;7.97;;;;;;;;;;4974795;28;20190;-71
2023/05/16 09:09:09;;;;;;;9.17;8.30;;;;;;;;;;4974130;28;20206;-71
2023/05/16 09:12:13;;;;;;;12.20;8.83;;;;;;;;;;4974614;28;20214;-71
2023/05/16 09:15:20;;;;;;;10.77;7.90;;;;;;;;;;4974470;28;20186;-71
2023/05/16 09:18:25;;;;;;;8.73;7.83;;;;;;;;;;4962411;28;20203;-71
2023/05/16 09:21:31;;;;;;;8.47;7.67;;;;;;;;;;4974608;28;20650;-71
2023/05/16 09:24:43;;;;;;;8.70;7.53;;;;;;;;;;4974882;28;20183;-71
2023/05/16 09:27:51;;;;;;;9.43;7.77;;;;;;;;;;4974836;28;20515;-71
2023/05/16 09:30:58;;;;;;;9.23;8.27;;;;;;;;;;4974733;28;20214;-70
2023/05/16 09:34:06;;;;;;;8.83;7.93;;;;;;;;;;4973461;28;20634;-70
2023/05/16 09:37:11;;;;;;;8.60;7.70;;;;;;;;;;4962860;28;20179;-71
2023/05/16 09:40:15;;;;;;;9.53;7.53;;;;;;;;;;4974165;28;20199;-71
2023/05/16 09:43:24;;;;;;;8.47;7.60;;;;;;;;;;4963240;28;20218;-71
2023/05/16 09:46:29;;;;;;;11.20;7.20;;;;;;;;;;4962494;28;20195;-71
2023/05/16 09:49:36;;;;;;;8.70;7.77;;;;;;;;;;4974519;28;20218;-71
2023/05/16 09:52:40;;;;;;;8.57;7.70;;;;;;;;;;4978207;28;20214;-71
2023/05/16 09:55:44;;;;;;;8.43;7.33;;;;;;;;;;4978384;28;20175;-71
2023/05/16 09:58:51;;;;;;;8.60;7.73;;;;;;;;;;4978105;28;20630;-71
2023/05/16 10:01:58;;;;;;;11.03;7.80;;;;;;;;;;4977927;28;20218;-71
2023/05/16 10:05:02;;;;;;;9.73;7.47;;;;;;;;;;5059831;22;20236;-73
2023/05/16 10:08:07;;;;;;;9.40;8.10;;;;;;;;;;5056495;28;20184;-73
2023/05/16 10:11:12;;;;;;;9.50;6.90;;;;;;;;;;5056328;28;20220;-74
2023/05/16 10:14:18;;;;;;;10.03;7.67;;;;;;;;;;5036729;28;20177;-74
2023/05/16 10:17:24;;;;;;;9.70;7.03;;;;;;;;;;5024448;28;20186;-74
2023/05/16 10:20:28;;;;;;;8.17;7.23;;;;;;;;;;5036260;28;20196;-74
2023/05/16 10:23:34;;;;;;;8.00;6.93;;;;;;;;;;5036154;28;20220;-74
2023/05/16 10:26:38;;;;;;;9.37;7.20;;;;;;;;;;5024255;28;20173;-74
2023/05/16 10:29:43;;;;;;;10.03;6.90;;;;;;;;;;5036011;28;20220;-74
2023/05/16 10:32:50;;;;;;;9.07;7.50;;;;;;;;;;5023763;28;20713;-73
2023/05/16 10:35:54;;;;;;;7.10;6.23;;;;;;;;;;5024124;28;20639;-74
2023/05/16 10:38:59;;;;;;;9.13;6.97;;;;;;;;;;5024055;28;20197;-73
2023/05/16 10:42:05;;;;;;;10.73;6.70;;;;;;;;;;5036147;28;20221;-74
2023/05/16 10:45:16;;;;;;;7.60;6.80;;;;;;;;;;5036396;28;20192;-73
2023/05/16 10:48:28;;;;;;;8.33;7.53;;;;;;;;;;5036293;28;20192;-74
2023/05/16 10:51:32;;;;;;;8.03;7.23;;;;;;;;;;5036108;28;20204;-73
2023/05/16 10:54:39;;;;;;;10.33;7.20;;;;;;;;;;5036483;28;20185;-74
2023/05/16 10:57:43;;;;;;;8.67;7.57;;;;;;;;;;5035908;28;20189;-74
2023/05/16 11:00:48;;;;;;;10.03;7.60;;;;;;;;;;5035190;28;20197;-74
2023/05/16 11:03:55;;;;;;;9.00;7.20;;;;;;;;;;5023319;28;20215;-74
2023/05/16 11:07:00;;;;;;;202.20;17.57;;;;;;;;;;5023619;28;20180;-74
2023/05/16 11:10:06;;;;;;;111.83;12.60;;;;;;;;;;5023432;28;20212;-74
2023/05/16 11:13:10;;;;;;;22.07;7.27;;;;;;;;;;5036488;28;20218;-74
2023/05/16 11:16:28;;;;;;;22.17;7.07;;;;;;;;;;5035833;28;20671;-74
2023/05/16 11:19:33;;;;;;;8.73;6.90;;;;;;;;;;5035248;28;20188;-74
2023/05/16 11:22:41;;;;;;;12.00;6.97;;;;;;;;;;5023212;28;20695;-74
2023/05/16 11:25:57;;;;;;;7.93;7.13;;;;;;;;;;5035376;28;20204;-74
2023/05/16 11:29:02;;;;;;;10.57;7.57;;;;;;;;;;5023427;28;20620;-74
2023/05/16 11:32:06;;;;;;;8.67;6.97;;;;;;;;;;5035252;28;20215;-74
2023/05/16 11:35:16;;;;;;;7.60;6.87;;;;;;;;;;5034928;28;20184;-74
2023/05/16 11:38:20;;;;;;;9.23;6.57;;;;;;;;;;5023029;28;20190;-74
2023/05/16 11:41:24;;;;;;;7.47;6.77;;;;;;;;;;5035074;28;20173;-74
2023/05/16 11:44:28;;;;;;;8.23;7.30;;;;;;;;;;5023084;28;20200;-74
2023/05/16 11:47:35;;;;;;;8.37;7.13;;;;;;;;;;5034932;28;20192;-74
2023/05/16 11:50:40;;;;;;;7.00;5.00;;;;;;;;;;5034797;28;20687;-74
2023/05/16 11:53:44;;;;;;;5.60;4.60;;;;;;;;;;5034866;28;20177;-74
2023/05/16 11:56:49;;;;;;;12.17;4.57;;;;;;;;;;5034627;28;20524;-73
2023/05/16 11:59:53;;;;;;;7.93;4.97;;;;;;;;;;5022542;28;20197;-74
2023/05/16 12:03:03;;;;;;;5.30;4.80;;;;;;;;;;5022319;28;20216;-73
2023/05/16 12:06:07;;;;;;;6.03;4.90;;;;;;;;;;5034400;28;20192;-73
2023/05/16 12:09:13;;;;;;;9.57;5.63;;;;;;;;;;5022634;28;20639;-73
2023/05/16 12:12:20;;;;;;;9.83;5.50;;;;;;;;;;5021659;28;20221;-73
2023/05/16 12:15:24;;;;;;;7.03;6.23;;;;;;;;;;5034336;28;20516;-74
2023/05/16 12:18:28;;;;;;;7.40;5.67;;;;;;;;;;5034668;28;20512;-74
2023/05/16 12:21:32;;;;;;;10.33;6.57;;;;;;;;;;5022115;28;20623;-73
2023/05/16 12:24:39;;;;;;;12.17;7.53;;;;;;;;;;5034500;28;20169;-74
2023/05/16 12:27:43;;;;;;;16.40;7.73;;;;;;;;;;5033959;28;20181;-73
2023/05/16 12:30:47;;;;;;;9.63;7.33;;;;;;;;;;5034304;28;20220;-74
2023/05/16 12:33:53;;;;;;;10.93;8.17;;;;;;;;;;5033812;28;20176;-74
2023/05/16 12:36:58;;;;;;;10.97;8.40;;;;;;;;;;5022152;28;20185;-74
2023/05/16 12:40:03;;;;;;;11.07;8.23;;;;;;;;;;5033533;28;20687;-73
2023/05/16 12:43:21;;;;;;;10.30;8.40;;;;;;;;;;5033407;28;20588;-73
2023/05/16 12:46:25;;;;;;;10.57;8.20;;;;;;;;;;5034014;28;20188;-74
2023/05/16 12:49:32;;;;;;;9.40;7.93;;;;;;;;;;5033836;28;20188;-73
2023/05/16 12:52:36;;;;;;;8.63;7.60;;;;;;;;;;5033847;28;20208;-74
2023/05/16 12:55:41;;;;;;;10.13;7.00;;;;;;;;;;5033592;28;20181;-74
2023/05/16 12:58:50;;;;;;;10.07;8.83;;;;;;;;;;5021517;28;20651;-74
2023/05/16 13:01:54;;;;;;;10.10;8.93;;;;;;;;;;5021043;28;20221;-73
2023/05/16 13:04:59;;;;;;;7.13;6.43;;;;;;;;;;5021289;28;20211;-74
2023/05/16 13:08:03;;;;;;;8.17;6.17;;;;;;;;;;5021461;28;20173;-73
2023/05/16 13:11:07;;;;;;;8.60;6.47;;;;;;;;;;5033315;28;20540;-74
2023/05/16 13:14:11;;;;;;;6.53;5.90;;;;;;;;;;5033203;28;20181;-74
2023/05/16 13:17:15;;;;;;;6.53;5.80;;;;;;;;;;5021589;28;20180;-74
2023/05/16 13:20:20;;;;;;;7.10;6.40;;;;;;;;;;5010075;28;20181;-74
2023/05/16 13:23:25;;;;;;;7.60;6.07;;;;;;;;;;5033034;28;20220;-74
2023/05/16 13:26:30;;;;;;;7.37;5.83;;;;;;;;;;5021323;28;20181;-74
2023/05/16 13:29:34;;;;;;;6.50;5.80;;;;;;;;;;5033903;28;20529;-74
2023/05/16 13:32:38;;;;;;;9.07;5.90;;;;;;;;;;5020979;28;20213;-74
2023/05/16 13:35:42;;;;;;;6.83;6.23;;;;;;;;;;5033078;28;20177;-74
2023/05/16 13:38:47;;;;;;;7.53;5.87;;;;;;;;;;5021014;28;20181;-74
2023/05/16 13:41:51;;;;;;;7.27;6.17;;;;;;;;;;5033144;28;20208;-73
2023/05/16 13:44:55;;;;;;;6.70;6.03;;;;;;;;;;5033196;28;20181;-73
2023/05/16 13:48:00;;;;;;;9.13;6.40;;;;;;;;;;5033520;28;20177;-74
2023/05/16 13:51:04;;;;;;;7.17;6.47;;;;;;;;;;5032806;28;20213;-73
2023/05/16 13:54:08;;;;;;;8.53;6.80;;;;;;;;;;5010065;28;20513;-74
2023/05/16 13:57:12;;;;;;;11.70;7.37;;;;;;;;;;5032845;28;20177;-73
2023/05/16 14:00:18;;;;;;;8.67;7.20;;;;;;;;;;5032824;28;20190;-73
2023/05/16 14:03:22;;;;;;;9.50;7.17;;;;;;;;;;5032779;28;20217;-74
2023/05/16 14:06:26;;;;;;;7.23;6.53;;;;;;;;;;5020598;28;20181;-74
2023/05/16 14:09:33;;;;;;;7.90;7.17;;;;;;;;;;5032695;28;20204;-74
2023/05/16 14:12:39;;;;;;;7.57;6.77;;;;;;;;;;5009294;28;20216;-74
2023/05/16 14:15:43;;;;;;;10.77;7.40;;;;;;;;;;5032848;28;20193;-74
2023/05/16 14:18:48;;;;;;;10.70;7.87;;;;;;;;;;5032926;28;20203;-73
2023/05/16 14:21:52;;;;;;;9.13;7.27;;;;;;;;;;5033141;28;20221;-73
2023/05/16 14:24:56;;;;;;;9.80;8.80;;;;;;;;;;5020656;28;20181;-74
2023/05/16 14:28:00;;;;;;;9.70;8.70;;;;;;;;;;5032804;28;20181;-74
2023/05/16 14:31:04;;;;;;;9.70;8.80;;;;;;;;;;5032398;28;20560;-74
2023/05/16 14:34:08;;;;;;;9.97;8.90;;;;;;;;;;5032437;28;20192;-74
2023/05/16 14:37:15;;;;;;;10.10;9.10;;;;;;;;;;5011869;28;20201;-74
2023/05/16 14:40:20;;;;;;;10.37;9.10;;;;;;;;;;5036205;28;20177;-74
2023/05/16 14:43:25;;;;;;;11.90;9.20;;;;;;;;;;5023999;28;20216;-74
2023/05/16 14:46:29;;;;;;;10.43;9.13;;;;;;;;;;5036445;28;20647;-74
2023/05/16 14:49:33;;;;;;;11.50;9.17;;;;;;;;;;5035793;28;20188;-74
2023/05/16 14:52:38;;;;;;;10.67;9.03;;;;;;;;;;5024065;28;20706;-74
2023/05/16 14:55:43;;;;;;;10.63;9.03;;;;;;;;;;5036264;28;20182;-73
2023/05/16 14:58:47;;;;;;;10.40;9.30;;;;;;;;;;5035596;28;20181;-74
2023/05/16 15:01:51;;;;;;;10.67;9.57;;;;;;;;;;5023379;28;20591;-74
2023/05/16 15:04:55;;;;;;;10.50;9.40;;;;;;;;;;5035483;28;20694;-73
2023/05/16 15:07:59;;;;;;;9.83;8.77;;;;;;;;;;5035473;28;20189;-74
2023/05/16 15:11:03;;;;;;;11.73;9.50;;;;;;;;;;5035194;28;20213;-73
2023/05/16 15:14:07;;;;;;;10.67;8.87;;;;;;;;;;5035284;28;20196;-74
2023/05/16 15:17:12;;;;;;;10.67;9.23;;;;;;;;;;5035571;28;20180;-74
2023/05/16 15:20:16;;;;;;;12.33;9.40;;;;;;;;;;5023203;28;20212;-74
2023/05/16 15:23:20;;;;;;;11.20;9.13;;;;;;;;;;5035678;28;20217;-75
2023/05/16 15:26:24;;;;;;;11.17;9.63;;;;;;;;;;5035364;28;20176;-74
2023/05/16 15:29:28;;;;;;;12.60;9.80;;;;;;;;;;5022791;28;20211;-74
2023/05/16 15:32:32;;;;;;;17.73;12.90;;;;;;;;;;5022677;28;20231;-74
2023/05/16 15:35:36;;;;;;;17.57;13.27;;;;;;;;;;5035511;28;20524;-74
2023/05/16 15:38:44;;;;;;;14.43;10.80;;;;;;;;;;5023228;28;20192;-73
2023/05/16 15:41:48;;;;;;;12.07;10.17;;;;;;;;;;5022523;28;20215;-73
2023/05/16 15:44:52;;;;;;;11.47;9.50;;;;;;;;;;5034920;28;20540;-73
2023/05/16 15:47:57;;;;;;;12.13;10.47;;;;;;;;;;5033808;28;20189;-74
2023/05/16 15:51:01;;;;;;;15.20;10.10;;;;;;;;;;5034861;28;20224;-74
2023/05/16 15:54:06;;;;;;;11.73;10.47;;;;;;;;;;5022810;28;20211;-74
2023/05/16 15:57:10;;;;;;;11.60;10.40;;;;;;;;;;5034348;28;20666;-74
2023/05/16 16:00:15;;;;;;;13.00;9.60;;;;;;;;;;5022863;28;20196;-73
2023/05/16 16:03:20;;;;;;;11.97;9.73;;;;;;;;;;5034221;28;20219;-73
2023/05/16 16:06:24;;;;;;;12.00;9.83;;;;;;;;;;5034489;28;20177;-73
2023/05/16 16:09:28;;;;;;;13.30;9.90;;;;;;;;;;5034163;28;20201;-72
2023/05/16 16:12:32;;;;;;;11.80;9.97;;;;;;;;;;5034012;28;20237;-73
2023/05/16 16:15:37;;;;;;;14.70;10.63;;;;;;;;;;5034378;28;20192;-73
2023/05/16 16:18:42;;;;;;;11.37;10.00;;;;;;;;;;5034459;28;20202;-73
2023/05/16 16:21:46;;;;;;;14.17;10.90;;;;;;;;;;5034005;28;20227;-73
2023/05/16 16:24:50;;;;;;;13.23;10.80;;;;;;;;;;5021758;28;20686;-73
2023/05/16 16:27:55;;;;;;;12.57;11.17;;;;;;;;;;5033833;28;20188;-73
2023/05/16 16:30:59;;;;;;;12.73;11.43;;;;;;;;;;5034036;28;20208;-73
2023/05/16 16:34:03;;;;;;;17.10;11.37;;;;;;;;;;5033914;28;20678;-74
2023/05/16 16:37:08;;;;;;;12.73;11.43;;;;;;;;;;5021854;28;20183;-73
2023/05/16 16:40:13;;;;;;;13.10;11.80;;;;;;;;;;5010822;28;20196;-73
2023/05/16 16:43:17;;;;;;;12.77;11.37;;;;;;;;;;5033870;28;20215;-74
2023/05/16 16:46:22;;;;;;;18.00;11.57;;;;;;;;;;5033561;28;20560;-74
2023/05/16 16:49:26;;;;;;;15.20;12.10;;;;;;;;;;5021831;28;20192;-74
2023/05/16 16:52:30;;;;;;;12.50;11.20;;;;;;;;;;5033237;28;20255;-73
2023/05/16 16:55:35;;;;;;;17.70;12.10;;;;;;;;;;5034029;28;20188;-73
2023/05/16 16:58:40;;;;;;;14.73;12.40;;;;;;;;;;5033442;28;20186;-72
2023/05/16 17:01:44;;;;;;;16.13;12.43;;;;;;;;;;5010179;28;20235;-73
2023/05/16 17:04:48;;;;;;;13.50;11.73;;;;;;;;;;5033363;28;20215;-73
2023/05/16 17:07:52;;;;;;;16.03;13.10;;;;;;;;;;5021619;28;20184;-73
2023/05/16 17:10:58;;;;;;;18.90;11.97;;;;;;;;;;5021281;28;20196;-73
2023/05/16 17:14:04;;;;;;;14.10;11.57;;;;;;;;;;5021503;28;20184;-73
2023/05/16 17:17:08;;;;;;;13.87;12.10;;;;;;;;;;5033186;28;20188;-73
2023/05/16 17:20:13;;;;;;;13.97;11.20;;;;;;;;;;5021037;28;20742;-73
2023/05/16 17:23:17;;;;;;;12.83;9.97;;;;;;;;;;5033893;28;20710;-73
2023/05/16 17:26:21;;;;;;;12.30;8.77;;;;;;;;;;5021465;28;20195;-73
2023/05/16 17:29:26;;;;;;;14.13;7.43;;;;;;;;;;5033547;28;20187;-73
2023/05/16 17:32:30;;;;;;;10.23;6.93;;;;;;;;;;5032962;28;20236;-73
2023/05/16 17:35:35;;;;;;;9.63;6.73;;;;;;;;;;5020830;28;20176;-73
2023/05/16 17:38:39;;;;;;;7.20;5.50;;;;;;;;;;5021001;28;20624;-74
2023/05/16 17:41:44;;;;;;;6.07;5.13;;;;;;;;;;5020558;28;20216;-73
2023/05/16 17:44:48;;;;;;;6.93;5.20;;;;;;;;;;5033378;28;20185;-73
2023/05/16 17:47:52;;;;;;;11.63;5.20;;;;;;;;;;5009608;28;20193;-73
2023/05/16 17:50:56;;;;;;;6.60;5.37;;;;;;;;;;5021117;28;20176;-73
2023/05/16 17:54:02;;;;;;;6.63;4.83;;;;;;;;;;5020857;28;20628;-73
2023/05/16 17:57:07;;;;;;;12.57;5.57;;;;;;;;;;5032969;28;20173;-73
2023/05/16 18:00:13;;;;;;;7.17;4.80;;;;;;;;;;5032689;28;20181;-73
2023/05/16 18:03:17;;;;;;;5.53;5.03;;;;;;;;;;5032680;28;20686;-74
2023/05/16 18:06:21;;;;;;;6.30;5.20;;;;;;;;;;5020485;28;20188;-73
2023/05/16 18:09:25;;;;;;;8.80;5.77;;;;;;;;;;5032803;28;20628;-72
2023/05/16 18:12:30;;;;;;;6.83;5.00;;;;;;;;;;5035637;28;20220;-73
2023/05/16 18:15:36;;;;;;;6.03;5.07;;;;;;;;;;5036909;28;20569;-73
2023/05/16 18:18:41;;;;;;;6.90;5.10;;;;;;;;;;5036267;28;20204;-73
2023/05/16 18:21:45;;;;;;;7.67;4.87;;;;;;;;;;5036087;28;20212;-72